createdAt,value
2022-12-06T00:04:30.356Z,48.79
2022-12-06T00:09:33.254Z,48.89
2022-12-06T00:14:37.479Z,48.60
2022-12-06T00:19:39.263Z,48.73
2022-12-06T00:24:41.245Z,49.14
2022-12-06T00:29:43.123Z,49.40
2022-12-06T00:34:44.907Z,49.55
2022-12-06T00:39:46.642Z,49.69
2022-12-06T00:44:48.457Z,49.41
2022-12-06T00:49:50.235Z,49.53
2022-12-06T00:54:51.934Z,49.26
2022-12-06T00:59:53.789Z,49.40
2022-12-06T01:04:55.496Z,50.29
2022-12-06T01:09:57.549Z,50.86
2022-12-06T01:14:59.586Z,50.96
2022-12-06T01:20:01.549Z,50.87
2022-12-06T01:25:03.720Z,51.03
2022-12-06T01:30:06.807Z,50.96
2022-12-06T01:35:08.994Z,51.06
2022-12-06T01:40:11.480Z,51.40
2022-12-06T01:45:13.341Z,51.99
2022-12-06T01:50:22.166Z,52.01
2022-12-06T01:55:28.380Z,51.99
2022-12-06T02:00:30.264Z,52.02
2022-12-06T02:05:37.513Z,51.92
2022-12-06T02:10:42.472Z,51.97
2022-12-06T02:16:10.727Z,52.05
2022-12-06T02:21:18.280Z,52.14
2022-12-06T02:26:33.597Z,52.27
2022-12-06T02:31:50.565Z,52.21
2022-12-06T02:37:29.719Z,51.92
2022-12-06T02:42:42.515Z,52.00
2022-12-06T02:47:47.347Z,52.14
2022-12-06T02:52:53.443Z,52.20
2022-12-06T02:57:57.379Z,52.38
2022-12-06T03:03:08.215Z,52.15
2022-12-06T03:08:19.776Z,52.18
2022-12-06T03:13:43.441Z,52.15
2022-12-06T03:18:53.262Z,51.75
2022-12-06T03:23:55.810Z,51.73
2022-12-06T03:29:00.465Z,51.85
2022-12-06T03:34:10.258Z,52.25
2022-12-06T03:39:16.192Z,52.39
2022-12-06T03:44:18.076Z,52.09
2022-12-06T03:49:36.379Z,51.99
2022-12-06T03:54:42.424Z,51.61
2022-12-06T03:59:44.163Z,51.71
2022-12-06T04:04:46.100Z,51.58
2022-12-06T04:10:03.584Z,51.83
2022-12-06T04:15:06.745Z,52.04
2022-12-06T04:20:08.667Z,52.30
2022-12-06T04:25:10.440Z,52.34
2022-12-06T04:30:31.347Z,51.99
2022-12-06T04:35:51.894Z,51.52
2022-12-06T04:40:53.604Z,51.74
2022-12-06T04:45:55.638Z,51.65
2022-12-06T04:50:57.411Z,51.82
2022-12-06T04:55:59.497Z,51.72
2022-12-06T05:01:01.372Z,52.10
2022-12-06T05:06:03.488Z,51.83
2022-12-06T05:11:05.684Z,51.60
2022-12-06T05:16:08.128Z,51.62
2022-12-06T05:21:15.679Z,51.73
2022-12-06T05:26:19.681Z,52.06
2022-12-06T05:31:22.566Z,51.95
2022-12-06T05:36:27.637Z,52.07
2022-12-06T05:41:29.361Z,51.46
2022-12-06T05:46:31.032Z,51.63
2022-12-06T05:51:32.720Z,51.62
2022-12-06T05:56:34.472Z,51.34
2022-12-06T06:01:36.216Z,51.26
2022-12-06T06:06:37.885Z,51.77
2022-12-06T06:11:39.603Z,51.96
2022-12-06T06:16:41.519Z,51.91
2022-12-06T06:21:43.393Z,51.47
2022-12-06T06:26:45.083Z,51.58
2022-12-06T06:31:46.749Z,51.63
2022-12-06T06:36:48.773Z,50.99
2022-12-06T06:41:50.536Z,51.95
2022-12-06T06:46:52.334Z,51.93
2022-12-06T06:51:54.036Z,51.09
2022-12-06T06:56:56.274Z,51.07
2022-12-06T07:01:58.122Z,51.43
2022-12-06T07:07:00.328Z,51.76
2022-12-06T07:12:02.355Z,51.46
2022-12-06T07:17:04.786Z,51.22
2022-12-06T07:22:06.804Z,51.28
2022-12-06T07:27:08.683Z,51.67
2022-12-06T07:32:10.987Z,51.91
2022-12-06T07:37:12.750Z,51.76
2022-12-06T07:42:33.204Z,51.65
2022-12-06T07:47:37.906Z,51.14
2022-12-06T07:52:39.697Z,51.39
2022-12-06T07:57:43.627Z,51.43
2022-12-06T08:02:46.073Z,50.96
2022-12-06T08:07:47.835Z,51.08
2022-12-06T08:12:49.509Z,51.08
2022-12-06T08:17:51.163Z,50.83
2022-12-06T08:22:52.762Z,50.90
2022-12-06T08:27:54.391Z,51.05
2022-12-06T08:32:56.126Z,50.72
2022-12-06T08:37:57.778Z,50.26
2022-12-06T08:42:59.438Z,50.18
2022-12-06T08:48:01.735Z,50.26
2022-12-06T08:53:03.520Z,50.22
2022-12-06T08:58:05.255Z,49.82
2022-12-06T09:03:06.923Z,49.85
2022-12-06T09:08:08.664Z,49.99
2022-12-06T09:13:10.445Z,49.89
2022-12-06T09:18:12.119Z,49.86
2022-12-06T09:23:13.779Z,49.93
2022-12-06T09:28:15.974Z,49.97
2022-12-06T09:33:17.719Z,49.66
2022-12-06T09:38:27.088Z,49.76
2022-12-06T09:44:15.515Z,49.60
2022-12-06T09:49:42.837Z,49.48
2022-12-06T09:54:55.885Z,49.42
2022-12-06T10:00:23.109Z,49.41
2022-12-06T10:05:25.116Z,49.72
2022-12-06T10:10:45.539Z,49.54
2022-12-06T10:16:00.882Z,49.27
2022-12-06T10:21:23.133Z,49.15
2022-12-06T10:26:34.150Z,48.93
2022-12-06T10:32:06.622Z,48.91
2022-12-06T10:37:49.788Z,48.90
2022-12-06T10:42:57.704Z,49.10
2022-12-06T10:48:02.795Z,49.10
2022-12-06T10:53:11.566Z,49.07
2022-12-06T10:58:28.035Z,48.84
2022-12-06T11:03:38.077Z,48.62
2022-12-06T11:08:45.205Z,48.44
2022-12-06T11:13:56.539Z,48.44
2022-12-06T11:19:14.223Z,48.51
2022-12-06T11:24:20.040Z,48.53
2022-12-06T11:29:22.505Z,48.58
2022-12-06T11:34:33.129Z,48.67
2022-12-06T11:39:34.914Z,48.75
2022-12-06T11:44:50.056Z,48.60
2022-12-06T11:49:55.573Z,48.65
2022-12-06T11:55:06.500Z,48.78
2022-12-06T12:00:17.993Z,48.75
2022-12-06T12:05:30.475Z,48.52
2022-12-06T12:10:42.638Z,48.33
2022-12-06T12:15:51.805Z,48.37
2022-12-06T12:20:56.082Z,48.87
2022-12-06T12:26:16.736Z,48.68
2022-12-06T12:31:25.440Z,47.93
2022-12-06T12:36:29.264Z,47.72
2022-12-06T12:41:38.630Z,47.90
2022-12-06T12:46:44.940Z,48.66
2022-12-06T12:51:48.215Z,48.78
2022-12-06T12:56:50.758Z,48.72
2022-12-06T13:02:05.577Z,48.92
2022-12-06T13:07:10.388Z,48.64
2022-12-06T13:12:35.808Z,48.49
2022-12-06T13:17:41.890Z,48.65
2022-12-06T13:22:45.534Z,48.42
2022-12-06T13:27:51.209Z,48.57
2022-12-06T13:33:16.456Z,48.75
2022-12-06T13:38:29.022Z,48.86
2022-12-06T13:43:39.278Z,48.97
2022-12-06T13:49:01.222Z,48.84
2022-12-06T13:54:06.041Z,48.88
2022-12-06T13:59:15.620Z,48.98
2022-12-06T14:09:38.436Z,49.21
2022-12-06T14:14:40.141Z,49.22
2022-12-06T14:19:45.619Z,49.16
2022-12-06T14:25:01.467Z,49.32
2022-12-06T14:30:19.766Z,49.54
2022-12-06T14:35:37.191Z,49.74
2022-12-06T14:41:00.906Z,49.69
2022-12-06T14:46:06.294Z,49.71
2022-12-06T14:51:25.613Z,49.55
2022-12-06T14:56:34.732Z,49.53
2022-12-06T15:01:47.689Z,49.53
2022-12-06T15:06:56.366Z,49.69
2022-12-06T15:12:54.173Z,49.64
2022-12-06T15:18:04.161Z,49.66
2022-12-06T15:23:40.891Z,49.64
2022-12-06T15:28:42.949Z,49.57
2022-12-06T15:33:45.572Z,49.48
2022-12-06T15:38:48.130Z,49.54
2022-12-06T15:43:50.726Z,49.50
2022-12-06T15:48:53.909Z,49.43
2022-12-06T15:53:57.501Z,49.50
2022-12-06T15:58:59.198Z,49.39
2022-12-06T16:04:01.600Z,49.31
2022-12-06T16:09:03.502Z,49.49
2022-12-06T16:14:05.738Z,49.57
2022-12-06T16:19:07.407Z,49.58
2022-12-06T16:24:14.470Z,49.41
2022-12-06T16:29:20.655Z,49.50
2022-12-06T16:34:22.742Z,49.50
2022-12-06T16:39:25.145Z,49.46
2022-12-06T16:44:26.845Z,49.25
2022-12-06T16:49:45.834Z,49.30
2022-12-06T16:54:48.264Z,49.27
2022-12-06T16:59:49.962Z,49.39
2022-12-06T17:04:51.634Z,49.47
2022-12-06T17:09:53.570Z,49.36
2022-12-06T17:14:55.262Z,49.36
2022-12-06T17:19:56.820Z,49.42
2022-12-06T17:24:59.965Z,49.10
2022-12-06T17:30:01.888Z,49.69
2022-12-06T17:35:04.155Z,49.60
2022-12-06T17:40:07.239Z,49.33
2022-12-06T17:45:09.148Z,49.39
2022-12-06T17:50:10.954Z,49.42
2022-12-06T17:55:13.371Z,49.48
2022-12-06T18:00:15.588Z,49.44
2022-12-06T18:05:17.469Z,49.46
2022-12-06T18:10:19.153Z,49.72
2022-12-06T18:15:39.156Z,49.78
2022-12-06T18:20:43.087Z,49.72
2022-12-06T18:25:44.709Z,49.90
2022-12-06T18:30:46.577Z,49.94
2022-12-06T18:35:51.563Z,50.08
2022-12-06T18:41:00.657Z,49.95
2022-12-06T18:46:08.027Z,49.82
2022-12-06T18:51:12.484Z,49.79
2022-12-06T18:56:16.946Z,49.70
2022-12-06T19:01:21.845Z,49.82
2022-12-06T19:06:26.663Z,49.85
2022-12-06T19:11:28.767Z,49.86
2022-12-06T19:16:48.621Z,49.78
2022-12-06T19:21:52.320Z,49.93
2022-12-06T19:27:00.846Z,49.97
2022-12-06T19:32:02.451Z,49.85
2022-12-06T19:37:04.017Z,49.97
2022-12-06T19:42:24.299Z,50.01
2022-12-06T19:47:27.404Z,49.92
2022-12-06T19:52:30.986Z,49.88
2022-12-06T19:57:32.997Z,49.87
2022-12-06T20:02:34.764Z,49.98
2022-12-06T20:07:36.954Z,49.93
2022-12-06T20:12:38.672Z,49.91
2022-12-06T20:17:40.827Z,49.89
2022-12-06T20:22:42.796Z,50.07
2022-12-06T20:27:53.300Z,50.06
2022-12-06T20:32:54.927Z,49.93
2022-12-06T20:37:56.715Z,49.87
2022-12-06T20:42:58.210Z,49.78
2022-12-06T20:48:00.376Z,49.65
2022-12-06T20:53:02.495Z,49.31
2022-12-06T20:58:04.094Z,49.37
2022-12-06T21:03:05.671Z,49.55
2022-12-06T21:08:07.546Z,49.47
2022-12-06T21:13:11.499Z,49.63
2022-12-06T21:18:18.777Z,49.76
2022-12-06T21:23:21.436Z,49.84
2022-12-06T21:28:23.039Z,49.87
2022-12-06T21:33:25.472Z,49.83
2022-12-06T21:38:30.008Z,49.79
2022-12-06T21:43:31.775Z,49.58
2022-12-06T21:48:33.459Z,49.69
2022-12-06T21:53:35.939Z,49.67
2022-12-06T21:58:37.555Z,49.68
2022-12-06T22:03:42.053Z,49.80
2022-12-06T22:08:45.909Z,49.69
2022-12-06T22:13:52.820Z,49.55
2022-12-06T22:18:55.258Z,49.41
2022-12-06T22:24:00.153Z,49.49
2022-12-06T22:29:01.820Z,49.46
2022-12-06T22:34:03.861Z,49.46
2022-12-06T22:39:06.491Z,49.37
2022-12-06T22:44:08.305Z,49.50
2022-12-06T22:49:16.418Z,49.41
2022-12-06T22:54:19.554Z,49.45
2022-12-06T22:59:22.092Z,49.42
2022-12-06T23:04:23.719Z,49.23
2022-12-06T23:09:25.307Z,49.31
2022-12-06T23:14:27.032Z,49.38
2022-12-06T23:19:28.607Z,49.25
2022-12-06T23:24:30.345Z,49.22
2022-12-06T23:29:31.918Z,49.19
2022-12-06T23:36:24.396Z,52.77
2022-12-06T23:41:28.840Z,48.95
2022-12-06T23:46:32.577Z,49.05
2022-12-06T23:51:38.316Z,48.81
2022-12-06T23:56:42.029Z,48.82
